Time;durP1;ratioP1;P1;durP2;ratioP2;P2;SDS_P1;SDS_P2;PMS_P1;PMS_P2;Temp;Humidity;BMP_temperature;BMP_pressure;BME280_temperature;BME280_humidity;BME280_pressure;Samples;Min_cycle;Max_cycle;Signal;HPM_P1;HPM_P2
2024/01/13 00:00:12;;;;;;;27.63;8.93;;;1.90;99.90;;;;;;5244960;28;20432;-47
2024/01/13 00:02:43;;;;;;;14.37;7.40;;;1.90;99.90;;;;;;5246178;28;20189;-48
2024/01/13 00:05:13;;;;;;;9.80;6.90;;;1.80;99.90;;;;;;5240441;28;20432;-47
2024/01/13 00:07:44;;;;;;;18.40;7.50;;;1.90;99.90;;;;;;5240736;28;20262;-48
2024/01/13 00:10:15;;;;;;;16.67;6.83;;;2.00;99.90;;;;;;5240770;28;20191;-47
2024/01/13 00:12:45;;;;;;;21.73;8.50;;;1.90;99.90;;;;;;5242801;28;21030;-46
2024/01/13 00:15:16;;;;;;;9.97;7.13;;;1.80;99.90;;;;;;5244964;28;20194;-47
2024/01/13 00:17:47;;;;;;;22.23;9.10;;;1.80;99.90;;;;;;5241189;28;20206;-49
2024/01/13 00:20:17;;;;;;;28.57;8.47;;;1.90;99.90;;;;;;5239322;28;20190;-47
2024/01/13 00:22:48;;;;;;;12.10;6.57;;;1.80;99.90;;;;;;5244015;28;20211;-48
2024/01/13 00:25:19;;;;;;;17.60;7.40;;;1.80;99.90;;;;;;5241266;28;20179;-49
2024/01/13 00:27:49;;;;;;;15.10;6.93;;;1.80;99.90;;;;;;5237896;28;20830;-49
2024/01/13 00:30:20;;;;;;;18.03;7.50;;;1.90;99.90;;;;;;5216469;28;20259;-48
2024/01/13 00:32:50;;;;;;;19.87;6.93;;;2.00;99.90;;;;;;5236874;28;20183;-48
2024/01/13 00:35:21;;;;;;;15.80;7.13;;;2.00;99.90;;;;;;5239428;28;20190;-53
2024/01/13 00:37:52;;;;;;;16.93;7.90;;;1.90;99.90;;;;;;5236887;28;20346;-47
2024/01/13 00:40:22;;;;;;;20.13;7.43;;;1.90;99.90;;;;;;5238367;28;20261;-47
2024/01/13 00:42:53;;;;;;;19.80;6.73;;;2.00;99.90;;;;;;5243562;28;20166;-47
2024/01/13 00:45:23;;;;;;;18.07;6.73;;;2.10;99.90;;;;;;5240607;28;20182;-48
2024/01/13 00:47:54;;;;;;;20.27;6.60;;;2.10;99.90;;;;;;5245037;28;20198;-47
2024/01/13 00:50:25;;;;;;;10.37;5.93;;;2.10;99.90;;;;;;5243605;28;20213;-49
2024/01/13 00:52:55;;;;;;;16.20;6.03;;;2.10;99.90;;;;;;5245146;28;21123;-48
2024/01/13 00:55:26;;;;;;;19.20;6.20;;;2.10;99.90;;;;;;5248383;28;20186;-48
2024/01/13 00:57:56;;;;;;;12.07;6.20;;;2.20;99.90;;;;;;5238827;28;20663;-50
2024/01/13 01:00:27;;;;;;;9.07;5.30;;;2.10;99.90;;;;;;5233317;28;20261;-51
2024/01/13 01:02:57;;;;;;;21.17;6.13;;;2.10;99.90;;;;;;5239928;28;20547;-48
2024/01/13 01:05:28;;;;;;;9.30;5.73;;;2.20;99.90;;;;;;5244339;28;20182;-49
2024/01/13 01:07:59;;;;;;;14.50;5.80;;;2.10;99.90;;;;;;5238942;28;20258;-48
2024/01/13 01:10:29;;;;;;;14.17;5.73;;;2.20;99.90;;;;;;5242506;28;20213;-48
2024/01/13 01:13:00;;;;;;;24.13;6.50;;;2.20;99.90;;;;;;5242476;28;20175;-47
2024/01/13 01:15:31;;;;;;;19.60;5.20;;;2.20;99.90;;;;;;5245742;28;20175;-47
2024/01/13 01:18:01;;;;;;;18.57;6.07;;;2.20;99.90;;;;;;5246440;28;20206;-47
2024/01/13 01:20:32;;;;;;;17.43;5.47;;;2.20;99.90;;;;;;5242398;28;20278;-48
2024/01/13 01:23:03;;;;;;;13.77;6.80;;;2.20;99.90;;;;;;5249696;28;20600;-48
2024/01/13 01:25:33;;;;;;;7.30;5.23;;;2.20;99.90;;;;;;5244026;28;20185;-46
2024/01/13 01:28:04;;;;;;;7.87;5.40;;;2.20;99.90;;;;;;5241208;28;20237;-48
2024/01/13 01:30:35;;;;;;;19.70;6.43;;;2.20;99.90;;;;;;5248670;28;20243;-47
2024/01/13 01:33:05;;;;;;;14.97;5.33;;;2.20;99.90;;;;;;5249006;28;20284;-49
2024/01/13 01:35:36;;;;;;;11.33;5.83;;;2.10;99.90;;;;;;5230697;28;20205;-52
2024/01/13 01:38:06;;;;;;;9.23;5.03;;;2.20;99.90;;;;;;5234461;28;20543;-51
2024/01/13 01:40:39;;;;;;;19.93;6.73;;;2.10;99.90;;;;;;5240209;28;20186;-50
2024/01/13 01:43:10;;;;;;;15.13;4.57;;;2.20;99.90;;;;;;5242761;28;20646;-50
2024/01/13 01:45:40;;;;;;;6.30;4.60;;;2.20;99.90;;;;;;5241565;28;20442;-50
2024/01/13 01:48:11;;;;;;;12.23;4.60;;;2.10;99.90;;;;;;5243291;28;20281;-51
2024/01/13 01:50:42;;;;;;;8.80;4.90;;;2.20;99.90;;;;;;5240988;28;20182;-48
2024/01/13 01:53:14;;;;;;;16.63;5.20;;;2.20;99.90;;;;;;5242542;28;20273;-50
2024/01/13 01:55:45;;;;;;;11.13;5.20;;;2.20;99.90;;;;;;5241123;28;20225;-50
2024/01/13 01:58:17;;;;;;;8.20;4.57;;;2.20;99.90;;;;;;5222457;28;20993;-50
2024/01/13 02:00:48;;;;;;;6.60;4.47;;;2.10;99.90;;;;;;5238446;28;20267;-51
2024/01/13 02:03:19;;;;;;;19.23;4.93;;;2.10;99.90;;;;;;5243634;28;20432;-50
2024/01/13 02:05:50;;;;;;;18.10;4.00;;;2.10;99.90;;;;;;5233395;28;20445;-51
2024/01/13 02:08:21;;;;;;;9.70;4.30;;;2.20;99.90;;;;;;5242126;28;20834;-52
2024/01/13 02:10:51;;;;;;;6.70;4.23;;;2.30;99.90;;;;;;5240629;28;20231;-49
2024/01/13 02:13:22;;;;;;;13.43;5.13;;;2.40;99.90;;;;;;5244677;28;20646;-49
2024/01/13 02:15:52;;;;;;;11.00;4.93;;;2.20;99.90;;;;;;5223348;28;20202;-51
2024/01/13 02:18:23;;;;;;;10.17;3.80;;;2.30;99.90;;;;;;5238345;28;20206;-50
2024/01/13 02:20:54;;;;;;;12.10;3.40;;;2.30;99.90;;;;;;5241202;28;20185;-51
2024/01/13 02:23:24;;;;;;;8.60;4.47;;;2.20;99.90;;;;;;5239896;28;20209;-51
2024/01/13 02:25:56;;;;;;;5.70;3.70;;;2.30;99.90;;;;;;5240074;28;20186;-50
2024/01/13 02:28:26;;;;;;;16.57;4.70;;;2.20;99.90;;;;;;5241288;28;20696;-49
2024/01/13 02:30:57;;;;;;;13.33;4.20;;;2.20;99.90;;;;;;5237937;28;20436;-48
2024/01/13 02:33:27;;;;;;;11.27;4.50;;;2.30;99.90;;;;;;5240608;28;20187;-48
2024/01/13 02:35:58;;;;;;;7.10;3.97;;;2.30;99.90;;;;;;5242007;28;20670;-48
2024/01/13 02:38:29;;;;;;;13.70;4.50;;;2.30;99.90;;;;;;5238967;28;20195;-49
2024/01/13 02:40:59;;;;;;;8.30;4.40;;;2.30;99.90;;;;;;5244015;28;20182;-49
2024/01/13 02:43:30;;;;;;;15.20;5.00;;;2.30;99.90;;;;;;5238246;28;20547;-48
2024/01/13 02:46:00;;;;;;;8.30;4.07;;;2.30;99.90;;;;;;5239537;28;20194;-49
2024/01/13 02:48:39;;;;;;;13.77;4.87;;;2.30;99.90;;;;;;5241115;28;20194;-48
2024/01/13 02:51:13;;;;;;;6.33;4.10;;;2.30;99.90;;;;;;5241121;28;20178;-49
2024/01/13 02:53:45;;;;;;;3.93;3.50;;;2.20;99.90;;;;;;5243249;28;20458;-48
2024/01/13 02:56:16;;;;;;;5.30;4.00;;;2.20;99.90;;;;;;5237383;28;20497;-48
2024/01/13 02:58:47;;;;;;;15.53;4.70;;;2.20;99.90;;;;;;5238953;28;20891;-48
2024/01/13 03:01:17;;;;;;;10.70;4.07;;;2.20;99.90;;;;;;5241090;28;20483;-48
2024/01/13 03:03:52;;;;;;;6.33;2.97;;;2.20;99.90;;;;;;5240060;28;20182;-49
2024/01/13 03:06:24;;;;;;;7.10;4.10;;;2.20;99.90;;;;;;5238890;28;20166;-48
2024/01/13 03:08:55;;;;;;;4.20;3.70;;;2.20;99.90;;;;;;5242125;28;20509;-49
2024/01/13 03:11:26;;;;;;;7.23;3.83;;;2.30;99.90;;;;;;5239018;28;20484;-48
2024/01/13 03:13:56;;;;;;;8.17;3.83;;;2.20;99.90;;;;;;5244519;28;20459;-47
2024/01/13 03:16:27;;;;;;;10.93;3.10;;;2.20;99.90;;;;;;5240859;28;20255;-49
2024/01/13 03:18:58;;;;;;;6.93;3.20;;;2.20;99.90;;;;;;5241363;28;20202;-49
2024/01/13 03:21:28;;;;;;;5.30;2.90;;;2.20;99.90;;;;;;5240081;28;20482;-48
2024/01/13 03:23:59;;;;;;;3.63;3.10;;;2.30;99.90;;;;;;5249315;28;20171;-49
2024/01/13 03:26:30;;;;;;;8.93;2.80;;;2.30;99.90;;;;;;5243400;28;20185;-48
2024/01/13 03:29:00;;;;;;;3.07;2.73;;;2.30;99.90;;;;;;5242946;28;20395;-49
2024/01/13 03:31:31;;;;;;;3.10;2.90;;;2.20;99.90;;;;;;5243901;28;20202;-47
2024/01/13 03:34:02;;;;;;;3.97;3.40;;;2.20;99.90;;;;;;5242526;28;20186;-47
2024/01/13 03:36:32;;;;;;;4.10;3.37;;;2.20;99.90;;;;;;5244277;28;20210;-48
2024/01/13 03:39:03;;;;;;;4.73;3.07;;;2.10;99.90;;;;;;5241540;28;20203;-48
2024/01/13 03:41:35;;;;;;;6.60;2.80;;;2.20;99.90;;;;;;5239755;28;20265;-47
2024/01/13 03:44:05;;;;;;;5.63;3.50;;;2.10;99.90;;;;;;5242330;28;20194;-50
2024/01/13 03:46:36;;;;;;;3.83;3.50;;;2.10;99.90;;;;;;5244930;28;20762;-48
2024/01/13 03:49:06;;;;;;;6.20;4.10;;;2.10;99.90;;;;;;5245609;28;20319;-48
2024/01/13 03:51:37;;;;;;;10.17;3.87;;;2.00;99.90;;;;;;5245927;28;20561;-49
2024/01/13 03:54:08;;;;;;;7.60;4.63;;;2.10;99.90;;;;;;5247276;28;20205;-49
2024/01/13 03:56:38;;;;;;;7.40;4.43;;;2.00;99.90;;;;;;5247118;28;20289;-48
2024/01/13 03:59:13;;;;;;;6.90;3.90;;;2.00;99.90;;;;;;5241018;28;20225;-48
2024/01/13 04:01:43;;;;;;;6.97;5.00;;;2.00;99.90;;;;;;5241548;28;20197;-48
2024/01/13 04:04:14;;;;;;;5.67;5.10;;;2.10;99.90;;;;;;5247302;28;20436;-49
2024/01/13 04:06:44;;;;;;;7.97;4.30;;;2.00;99.90;;;;;;5246487;28;20186;-49
2024/01/13 04:09:15;;;;;;;6.20;4.40;;;2.10;99.90;;;;;;5246004;28;20236;-49
2024/01/13 04:11:46;;;;;;;4.87;4.43;;;2.10;99.90;;;;;;5247736;28;20292;-48
2024/01/13 04:14:16;;;;;;;8.27;4.77;;;2.00;99.90;;;;;;5246851;28;20546;-48
2024/01/13 04:16:47;;;;;;;7.47;5.03;;;2.00;99.90;;;;;;5243948;28;20214;-48
2024/01/13 04:19:17;;;;;;;6.33;4.50;;;2.00;99.90;;;;;;5246661;28;20373;-48
2024/01/13 04:21:48;;;;;;;7.27;3.33;;;2.00;99.90;;;;;;5245496;28;20182;-49
2024/01/13 04:24:19;;;;;;;9.20;4.43;;;2.00;99.90;;;;;;5246522;28;20174;-48
2024/01/13 04:26:49;;;;;;;5.50;3.83;;;2.00;99.90;;;;;;5243024;28;20548;-48
2024/01/13 04:29:20;;;;;;;4.80;3.73;;;2.00;99.90;;;;;;5245970;28;20229;-48
2024/01/13 04:31:50;;;;;;;5.23;3.53;;;1.90;99.90;;;;;;5246250;28;20558;-49
2024/01/13 04:34:21;;;;;;;4.37;3.97;;;1.90;99.90;;;;;;5241648;28;20211;-48
2024/01/13 04:36:51;;;;;;;5.17;4.00;;;1.90;99.90;;;;;;5242139;28;20203;-48
2024/01/13 04:39:22;;;;;;;5.23;4.70;;;1.90;99.90;;;;;;5241668;28;20190;-50
2024/01/13 04:41:53;;;;;;;4.60;4.20;;;1.90;99.90;;;;;;5244831;28;20232;-48
2024/01/13 04:44:23;;;;;;;6.30;4.10;;;1.90;99.90;;;;;;5225804;28;20635;-48
2024/01/13 04:46:54;;;;;;;6.27;4.20;;;1.90;99.90;;;;;;5240426;28;20193;-49
2024/01/13 04:49:25;;;;;;;5.60;4.17;;;1.90;99.90;;;;;;5241550;28;20202;-47
2024/01/13 04:51:56;;;;;;;3.53;3.00;;;1.90;99.90;;;;;;5239683;28;20377;-47
2024/01/13 04:54:26;;;;;;;4.10;3.60;;;1.90;99.90;;;;;;5238480;28;20634;-48
2024/01/13 04:56:57;;;;;;;5.77;4.80;;;1.90;99.90;;;;;;5211267;28;20206;-48
2024/01/13 04:59:27;;;;;;;3.63;3.37;;;1.90;99.90;;;;;;5239692;28;20593;-48
2024/01/13 05:01:58;;;;;;;4.67;4.20;;;1.90;99.90;;;;;;5239912;28;20182;-48
2024/01/13 05:04:29;;;;;;;3.60;3.30;;;1.90;99.90;;;;;;5242829;28;20257;-48
2024/01/13 05:06:59;;;;;;;4.13;3.83;;;1.90;99.90;;;;;;5240372;28;20255;-48
2024/01/13 05:09:30;;;;;;;3.93;3.67;;;1.90;99.90;;;;;;5238011;28;20665;-47
2024/01/13 05:12:00;;;;;;;5.33;4.17;;;1.90;99.90;;;;;;5239680;28;20183;-48
2024/01/13 05:14:31;;;;;;;5.07;4.47;;;1.90;99.90;;;;;;5245152;28;20193;-48
2024/01/13 05:17:02;;;;;;;8.23;4.10;;;1.90;99.90;;;;;;5240350;28;20232;-47
2024/01/13 05:19:33;;;;;;;3.17;3.07;;;1.90;99.90;;;;;;5238375;28;20255;-49
2024/01/13 05:22:03;;;;;;;4.30;3.90;;;1.90;99.90;;;;;;5228421;28;20520;-49
2024/01/13 05:24:34;;;;;;;3.93;3.57;;;1.90;99.90;;;;;;5241194;28;20221;-50
2024/01/13 05:27:05;;;;;;;3.83;3.50;;;1.90;99.90;;;;;;5223425;28;20179;-50
2024/01/13 05:29:35;;;;;;;5.20;3.30;;;2.00;99.90;;;;;;5242958;28;20210;-50
2024/01/13 05:32:06;;;;;;;3.33;3.03;;;1.90;99.90;;;;;;5243494;28;20223;-50
2024/01/13 05:34:36;;;;;;;4.23;3.93;;;1.90;99.90;;;;;;5237391;28;20239;-50
2024/01/13 05:37:07;;;;;;;3.13;3.03;;;1.80;99.90;;;;;;5232874;28;20245;-49
2024/01/13 05:39:38;;;;;;;4.30;3.17;;;1.80;99.90;;;;;;5243299;28;20201;-49
2024/01/13 05:42:08;;;;;;;6.90;3.73;;;1.80;99.90;;;;;;5244846;28;20173;-49
2024/01/13 05:44:39;;;;;;;3.03;2.83;;;1.70;99.90;;;;;;5242553;28;20239;-50
2024/01/13 05:47:10;;;;;;;4.87;3.57;;;1.80;99.90;;;;;;5246386;28;20205;-49
2024/01/13 05:49:40;;;;;;;3.73;3.43;;;1.80;99.90;;;;;;5238841;28;20244;-49
2024/01/13 05:52:11;;;;;;;3.23;3.03;;;1.80;99.90;;;;;;5240739;28;20190;-49
2024/01/13 05:54:42;;;;;;;4.00;3.67;;;1.80;99.90;;;;;;5239295;28;20178;-48
2024/01/13 05:57:12;;;;;;;3.20;3.00;;;1.90;99.90;;;;;;5240370;28;20677;-48
2024/01/13 05:59:43;;;;;;;4.07;3.77;;;1.90;99.90;;;;;;5241108;28;20199;-48
2024/01/13 06:02:14;;;;;;;4.23;3.80;;;1.80;99.90;;;;;;5244438;28;20295;-49
2024/01/13 06:04:46;;;;;;;3.70;3.40;;;1.80;99.90;;;;;;5239780;28;20663;-49
2024/01/13 06:07:17;;;;;;;7.07;3.97;;;1.80;99.90;;;;;;5239738;28;20829;-48
2024/01/13 06:09:47;;;;;;;4.67;4.27;;;1.90;99.90;;;;;;5235838;28;20499;-49
2024/01/13 06:12:20;;;;;;;5.03;4.40;;;1.80;99.90;;;;;;5242897;28;20182;-48
2024/01/13 06:14:50;;;;;;;4.63;4.23;;;1.90;99.90;;;;;;5242470;28;20643;-48
2024/01/13 06:17:21;;;;;;;5.07;4.53;;;1.80;99.90;;;;;;5243934;28;20463;-49
2024/01/13 06:19:52;;;;;;;4.73;4.23;;;1.80;99.90;;;;;;5241133;28;20170;-48
2024/01/13 06:22:23;;;;;;;5.53;4.80;;;1.80;99.90;;;;;;5242932;28;20443;-47
2024/01/13 06:24:54;;;;;;;6.23;4.83;;;1.80;99.90;;;;;;5238478;28;20174;-50
2024/01/13 06:27:24;;;;;;;5.67;5.17;;;1.90;99.90;;;;;;5244752;28;20186;-48
2024/01/13 06:29:55;;;;;;;5.93;5.20;;;1.80;99.90;;;;;;5240352;28;20251;-49
2024/01/13 06:32:25;;;;;;;7.13;6.17;;;1.80;99.90;;;;;;5237459;28;20845;-49
2024/01/13 06:34:56;;;;;;;5.90;5.40;;;1.80;99.90;;;;;;5243330;28;20257;-49
2024/01/13 06:37:27;;;;;;;7.70;6.07;;;1.90;99.90;;;;;;5242200;28;20194;-49
2024/01/13 06:39:57;;;;;;;11.90;6.07;;;1.80;99.90;;;;;;5244413;28;20564;-49
2024/01/13 06:42:28;;;;;;;9.40;6.40;;;1.80;99.90;;;;;;5242702;28;20178;-49
2024/01/13 06:44:59;;;;;;;9.20;6.23;;;1.80;99.90;;;;;;5236683;28;20203;-49
2024/01/13 06:47:29;;;;;;;8.07;5.70;;;1.80;99.90;;;;;;5240629;28;20179;-51
2024/01/13 06:50:00;;;;;;;10.40;6.67;;;1.80;99.90;;;;;;5238184;28;20698;-49
2024/01/13 06:52:30;;;;;;;6.07;5.47;;;1.90;99.90;;;;;;5239928;28;20255;-50
2024/01/13 06:55:02;;;;;;;7.50;5.93;;;1.90;99.90;;;;;;5238894;28;20551;-49
2024/01/13 06:57:32;;;;;;;10.37;7.20;;;1.80;99.90;;;;;;5247165;28;20677;-48
2024/01/13 07:00:07;;;;;;;9.67;7.07;;;1.80;99.90;;;;;;5244786;28;20437;-49
2024/01/13 07:02:38;;;;;;;8.50;6.23;;;1.80;99.90;;;;;;5242211;28;20174;-48
2024/01/13 07:05:10;;;;;;;7.07;6.00;;;2.00;99.90;;;;;;5243764;28;20432;-49
2024/01/13 07:07:41;;;;;;;7.90;6.27;;;1.90;99.90;;;;;;5244887;28;20569;-49
2024/01/13 07:10:12;;;;;;;6.87;5.73;;;1.90;99.90;;;;;;5246776;28;20436;-48
2024/01/13 07:12:42;;;;;;;7.40;5.60;;;1.90;99.90;;;;;;5245607;28;20186;-49
2024/01/13 07:15:13;;;;;;;5.80;5.30;;;1.90;99.90;;;;;;5246384;28;20182;-50
2024/01/13 07:17:43;;;;;;;9.70;6.90;;;1.90;99.90;;;;;;5243332;28;20213;-50
2024/01/13 07:20:14;;;;;;;8.77;6.27;;;1.80;99.90;;;;;;5242515;28;20202;-49
2024/01/13 07:22:45;;;;;;;20.77;5.30;;;1.90;99.90;;;;;;5240314;28;20183;-48
2024/01/13 07:25:16;;;;;;;5.80;5.20;;;2.00;99.90;;;;;;5250705;28;20182;-51
2024/01/13 07:27:46;;;;;;;9.87;6.30;;;1.90;99.90;;;;;;5245649;28;20206;-49
2024/01/13 07:30:17;;;;;;;6.27;4.93;;;1.90;99.90;;;;;;5242254;28;20191;-49
2024/01/13 07:32:48;;;;;;;6.20;5.10;;;1.90;99.90;;;;;;5241495;28;20190;-48
2024/01/13 07:35:18;;;;;;;7.23;5.40;;;1.90;99.90;;;;;;5247236;28;20256;-49
2024/01/13 07:37:49;;;;;;;5.70;4.53;;;1.90;99.90;;;;;;5245385;28;20341;-47
2024/01/13 07:40:19;;;;;;;6.43;4.70;;;1.90;99.90;;;;;;5237292;28;20204;-48
2024/01/13 07:42:50;;;;;;;5.00;4.60;;;2.00;99.90;;;;;;5245371;28;20616;-48
2024/01/13 07:45:21;;;;;;;4.27;3.87;;;1.90;99.90;;;;;;5245054;28;20190;-48
2024/01/13 07:47:51;;;;;;;4.77;4.27;;;2.00;99.90;;;;;;5242835;28;20251;-48
2024/01/13 07:50:22;;;;;;;5.63;4.50;;;2.00;99.90;;;;;;5244512;28;20193;-48
2024/01/13 07:52:53;;;;;;;4.90;4.50;;;2.00;99.90;;;;;;5241286;28;20201;-48
2024/01/13 07:55:23;;;;;;;4.03;3.63;;;2.10;99.90;;;;;;5237532;28;20277;-50
2024/01/13 07:57:54;;;;;;;4.10;3.70;;;2.10;99.90;;;;;;5241058;28;20573;-50
2024/01/13 08:00:26;;;;;;;3.50;3.30;;;2.00;99.90;;;;;;5238732;28;20187;-48
2024/01/13 08:02:56;;;;;;;3.73;3.50;;;2.00;99.90;;;;;;5232075;28;20179;-48
2024/01/13 08:05:27;;;;;;;3.77;3.40;;;2.00;99.90;;;;;;5244191;28;20924;-48
2024/01/13 08:07:57;;;;;;;2.97;2.80;;;2.10;99.90;;;;;;5240988;28;20693;-49
2024/01/13 08:10:28;;;;;;;3.27;3.17;;;2.10;99.90;;;;;;5245816;28;20582;-48
2024/01/13 08:13:00;;;;;;;3.43;3.23;;;2.10;99.90;;;;;;5244658;28;20182;-48
2024/01/13 08:15:31;;;;;;;3.93;2.87;;;2.10;99.90;;;;;;5233599;28;20581;-48
2024/01/13 08:18:02;;;;;;;3.07;2.33;;;2.10;99.90;;;;;;5244199;28;20475;-49
2024/01/13 08:20:32;;;;;;;2.70;2.60;;;2.10;99.90;;;;;;5243764;28;20183;-48
2024/01/13 08:23:03;;;;;;;2.17;2.07;;;2.10;99.90;;;;;;5235820;28;20183;-48
2024/01/13 08:25:35;;;;;;;3.30;2.17;;;2.10;99.90;;;;;;5238543;28;20182;-48
2024/01/13 08:28:06;;;;;;;2.07;2.00;;;2.10;99.90;;;;;;5258442;22;20215;-53
2024/01/13 08:30:37;;;;;;;2.17;2.10;;;2.20;99.90;;;;;;5215125;28;20469;-54
2024/01/13 08:33:08;;;;;;;2.17;2.07;;;2.20;99.90;;;;;;5221128;28;20489;-51
2024/01/13 08:35:39;;;;;;;2.10;2.00;;;2.30;99.90;;;;;;5213989;28;20434;-52
2024/01/13 08:38:11;;;;;;;5.63;2.60;;;2.40;99.90;;;;;;5217798;28;20194;-53
2024/01/13 08:40:44;;;;;;;2.57;2.37;;;2.40;99.90;;;;;;5223819;28;20439;-52
2024/01/13 08:43:14;;;;;;;2.57;2.37;;;2.40;99.90;;;;;;5221040;28;20437;-55
2024/01/13 08:45:45;;;;;;;2.23;2.13;;;2.40;99.90;;;;;;5224993;28;20495;-54
2024/01/13 08:48:16;;;;;;;2.07;2.07;;;2.40;99.90;;;;;;5215861;28;20211;-54
2024/01/13 08:50:46;;;;;;;3.27;2.17;;;2.50;99.90;;;;;;5220401;28;20666;-52
2024/01/13 08:53:17;;;;;;;2.20;2.10;;;2.50;99.90;;;;;;5223207;28;20187;-52
2024/01/13 08:55:48;;;;;;;2.30;2.10;;;2.50;99.90;;;;;;5224212;28;20184;-53
2024/01/13 08:58:18;;;;;;;2.23;2.07;;;2.60;99.90;;;;;;5217348;28;20564;-53
2024/01/13 09:00:49;;;;;;;2.10;2.00;;;2.60;99.90;;;;;;5218695;28;20188;-52
2024/01/13 09:03:20;;;;;;;2.57;2.47;;;2.60;99.90;;;;;;5221647;28;20278;-52
2024/01/13 09:05:50;;;;;;;5.50;2.13;;;2.40;99.90;;;;;;5219046;28;20180;-53
2024/01/13 09:08:21;;;;;;;2.73;2.53;;;2.40;99.90;;;;;;5214555;28;20226;-52
2024/01/13 09:10:52;;;;;;;2.30;2.10;;;2.30;99.90;;;;;;5216743;28;20182;-55
2024/01/13 09:13:22;;;;;;;2.67;2.43;;;2.30;99.90;;;;;;5210304;28;20195;-53
2024/01/13 09:15:53;;;;;;;2.73;2.20;;;2.30;99.90;;;;;;5217625;28;20757;-52
2024/01/13 09:18:23;;;;;;;2.90;2.63;;;2.50;99.90;;;;;;5220630;28;20277;-52
2024/01/13 09:20:54;;;;;;;2.50;2.40;;;2.40;99.90;;;;;;5219123;28;20179;-54
2024/01/13 09:23:25;;;;;;;3.97;1.83;;;2.50;99.90;;;;;;5217710;28;20183;-52
2024/01/13 09:25:55;;;;;;;2.90;2.70;;;2.50;99.90;;;;;;5220505;28;20183;-52
2024/01/13 09:28:26;;;;;;;2.37;2.17;;;2.60;99.90;;;;;;5220502;28;20207;-55
2024/01/13 09:30:57;;;;;;;2.20;2.00;;;2.70;99.90;;;;;;5218632;28;20214;-52
2024/01/13 09:33:28;;;;;;;2.43;2.43;;;2.80;99.90;;;;;;5225238;28;20472;-53
2024/01/13 09:35:59;;;;;;;2.97;2.73;;;2.80;99.90;;;;;;5222420;28;20199;-52
2024/01/13 09:38:30;;;;;;;3.27;3.07;;;2.80;99.90;;;;;;5217150;28;20449;-53
2024/01/13 09:41:00;;;;;;;2.77;2.57;;;2.80;99.90;;;;;;5219117;28;20183;-51
2024/01/13 09:44:08;;;;;;;3.33;2.93;;;2.80;99.90;;;;;;5222968;28;20176;-52
2024/01/13 09:46:38;;;;;;;2.63;2.50;;;2.80;99.90;;;;;;5203597;28;20285;-53
2024/01/13 09:49:12;;;;;;;4.03;2.53;;;2.90;99.90;;;;;;5220375;28;21059;-53
2024/01/13 09:51:43;;;;;;;2.73;2.63;;;2.80;99.90;;;;;;5218766;28;20191;-53
2024/01/13 09:54:25;;;;;;;1.90;1.80;;;2.90;99.90;;;;;;5219610;28;20473;-53
2024/01/13 09:56:57;;;;;;;2.83;2.63;;;2.80;99.90;;;;;;5220326;28;20827;-52
2024/01/13 09:59:30;;;;;;;2.13;2.03;;;2.90;99.90;;;;;;5182697;28;20484;-53
2024/01/13 10:02:02;;;;;;;1.90;1.80;;;2.90;99.90;;;;;;5209449;28;20953;-51
2024/01/13 10:04:36;;;;;;;2.17;2.17;;;3.00;99.90;;;;;;5218448;28;20189;-55
2024/01/13 10:07:08;;;;;;;2.37;2.27;;;3.10;99.90;;;;;;5213995;28;20440;-53
2024/01/13 10:09:40;;;;;;;2.07;1.97;;;3.10;99.90;;;;;;5213351;28;20480;-52
2024/01/13 10:12:10;;;;;;;2.30;2.20;;;3.00;99.90;;;;;;5215981;28;20544;-53
2024/01/13 10:14:44;;;;;;;6.80;2.30;;;3.00;99.90;;;;;;5222871;28;20567;-53
2024/01/13 10:17:14;;;;;;;2.03;1.93;;;3.00;99.90;;;;;;5208543;28;20342;-52
2024/01/13 10:19:45;;;;;;;2.30;2.20;;;3.00;99.90;;;;;;5218516;28;20552;-52
2024/01/13 10:22:18;;;;;;;2.47;2.27;;;2.90;99.90;;;;;;5217978;28;20175;-53
2024/01/13 10:24:49;;;;;;;2.30;2.20;;;2.90;99.90;;;;;;5218769;28;20179;-53
2024/01/13 10:27:20;;;;;;;2.53;1.97;;;2.90;99.90;;;;;;5220485;28;20842;-53
2024/01/13 10:29:51;;;;;;;2.60;2.37;;;2.90;99.90;;;;;;5219900;28;20468;-51
2024/01/13 10:32:21;;;;;;;2.80;2.70;;;2.90;99.90;;;;;;5216630;28;20498;-53
2024/01/13 10:34:53;;;;;;;2.80;2.60;;;2.90;99.90;;;;;;5224821;28;20187;-52
2024/01/13 10:37:26;;;;;;;2.40;2.30;;;2.90;99.90;;;;;;5217408;28;20667;-52
2024/01/13 10:39:56;;;;;;;1.60;1.50;;;2.90;99.90;;;;;;5218257;28;20458;-54
2024/01/13 10:42:35;;;;;;;2.20;2.07;;;2.90;99.90;;;;;;5217464;28;20443;-53
2024/01/13 10:45:09;;;;;;;5.30;2.57;;;2.90;99.90;;;;;;5219485;28;20723;-54
2024/01/13 10:47:45;;;;;;;2.07;1.97;;;2.80;99.90;;;;;;5223154;28;20417;-52
2024/01/13 10:50:16;;;;;;;2.20;2.00;;;2.80;99.90;;;;;;5215564;28;20469;-53
2024/01/13 10:52:53;;;;;;;3.03;2.77;;;2.70;99.90;;;;;;5208510;28;20442;-53
2024/01/13 10:55:25;;;;;;;2.77;2.57;;;2.50;99.90;;;;;;5216302;28;20483;-53
2024/01/13 10:57:58;;;;;;;2.70;2.50;;;2.70;99.90;;;;;;5216997;28;20530;-53
2024/01/13 11:00:30;;;;;;;2.43;2.23;;;2.80;99.90;;;;;;5213104;28;20453;-53
2024/01/13 11:03:03;;;;;;;2.77;2.60;;;2.80;99.90;;;;;;5212929;28;20446;-54
2024/01/13 11:05:37;;;;;;;1.87;1.87;;;2.80;99.90;;;;;;5217970;28;20442;-52
2024/01/13 11:08:07;;;;;;;2.20;2.10;;;2.90;99.90;;;;;;5220251;28;20465;-53
2024/01/13 11:10:45;;;;;;;1.73;1.63;;;2.90;99.90;;;;;;5221116;28;20463;-53
2024/01/13 11:13:25;;;;;;;1.83;1.70;;;2.90;99.90;;;;;;5223640;28;20179;-55
2024/01/13 11:16:12;;;;;;;1.60;1.60;;;2.90;99.90;;;;;;5221581;28;20506;-55
2024/01/13 11:18:49;;;;;;;1.70;1.60;;;3.10;99.90;;;;;;5218702;28;20461;-55
2024/01/13 11:21:32;;;;;;;1.90;1.90;;;3.00;99.90;;;;;;5216515;28;20548;-53
2024/01/13 11:24:07;;;;;;;2.13;2.00;;;3.10;99.90;;;;;;5218900;28;20433;-55
2024/01/13 11:26:48;;;;;;;2.00;1.90;;;3.10;99.90;;;;;;5219338;28;20537;-54
2024/01/13 11:29:19;;;;;;;2.20;2.10;;;3.10;99.90;;;;;;5206695;28;20558;-55
2024/01/13 11:31:58;;;;;;;2.10;2.00;;;3.10;99.90;;;;;;5203548;28;20433;-53
2024/01/13 11:34:29;;;;;;;1.50;1.50;;;3.00;99.90;;;;;;5215851;28;20609;-54
2024/01/13 11:37:00;;;;;;;2.53;2.27;;;3.00;99.90;;;;;;5220546;28;20468;-52
2024/01/13 11:39:30;;;;;;;1.80;1.70;;;3.10;99.90;;;;;;5219854;28;20199;-52
2024/01/13 11:42:03;;;;;;;1.47;1.47;;;3.10;99.90;;;;;;5218295;28;20179;-53
2024/01/13 11:44:42;;;;;;;2.17;1.97;;;2.90;99.90;;;;;;5222976;28;20279;-52
2024/01/13 11:47:13;;;;;;;2.13;2.03;;;2.90;99.90;;;;;;5220561;28;20468;-54
2024/01/13 11:49:45;;;;;;;2.03;1.93;;;2.90;99.90;;;;;;5205903;28;20454;-53
2024/01/13 11:52:28;;;;;;;2.20;1.83;;;2.90;99.90;;;;;;5227159;28;20459;-52
2024/01/13 11:54:59;;;;;;;1.97;1.87;;;2.90;99.90;;;;;;5227641;28;20467;-54
2024/01/13 11:57:30;;;;;;;1.70;1.67;;;2.90;99.90;;;;;;5224878;28;20465;-53
2024/01/13 12:00:01;;;;;;;1.40;1.30;;;2.90;99.90;;;;;;5227064;28;20260;-52
2024/01/13 12:02:31;;;;;;;2.37;2.20;;;2.80;99.90;;;;;;5227555;28;20183;-52
2024/01/13 12:05:03;;;;;;;1.30;1.30;;;2.90;99.90;;;;;;5223585;28;20579;-54
2024/01/13 12:07:34;;;;;;;1.33;1.23;;;2.80;99.90;;;;;;5220820;28;20663;-52
2024/01/13 12:10:08;;;;;;;2.40;2.30;;;3.00;99.90;;;;;;5223679;28;20503;-52
2024/01/13 12:12:38;;;;;;;1.40;1.40;;;3.00;99.90;;;;;;5222056;28;20199;-54
2024/01/13 12:15:09;;;;;;;2.07;2.07;;;3.10;99.90;;;;;;5224987;28;20433;-52
2024/01/13 12:17:40;;;;;;;4.27;2.00;;;3.00;99.90;;;;;;5223590;28;20206;-51
2024/01/13 12:20:11;;;;;;;2.00;1.63;;;3.10;99.90;;;;;;5224045;28;20183;-53
2024/01/13 12:22:41;;;;;;;2.77;2.57;;;3.10;99.90;;;;;;5202695;28;20655;-53
2024/01/13 12:25:12;;;;;;;1.77;1.77;;;3.10;99.90;;;;;;5220899;28;20247;-53
2024/01/13 12:27:43;;;;;;;1.23;1.23;;;3.10;99.90;;;;;;5219020;28;20707;-54
2024/01/13 12:30:18;;;;;;;2.10;1.60;;;3.10;99.90;;;;;;5206255;28;20198;-52
2024/01/13 12:32:49;;;;;;;1.90;1.90;;;3.10;99.90;;;;;;5222856;28;20527;-53
2024/01/13 12:35:24;;;;;;;2.00;1.90;;;3.20;99.90;;;;;;5221807;28;20915;-52
2024/01/13 12:37:55;;;;;;;5.30;1.30;;;3.30;99.90;;;;;;5224000;28;20472;-54
2024/01/13 12:40:27;;;;;;;1.63;1.63;;;3.40;99.90;;;;;;5220747;28;20438;-54
2024/01/13 12:42:58;;;;;;;1.67;1.57;;;3.40;99.90;;;;;;5221156;28;20269;-54
2024/01/13 12:45:29;;;;;;;1.90;1.90;;;3.30;99.90;;;;;;5218168;28;20426;-58
2024/01/13 12:47:59;;;;;;;2.10;1.30;;;3.20;99.90;;;;;;5224623;28;20457;-52
2024/01/13 12:50:33;;;;;;;3.33;1.40;;;3.20;99.90;;;;;;5222074;28;20212;-53
2024/01/13 12:53:04;;;;;;;1.57;1.57;;;3.20;99.90;;;;;;5207203;28;20184;-52
2024/01/13 12:55:36;;;;;;;2.03;1.43;;;3.00;99.90;;;;;;5222837;28;20448;-51
2024/01/13 12:58:07;;;;;;;1.40;1.40;;;3.00;99.90;;;;;;5223579;28;20211;-53
2024/01/13 13:00:37;;;;;;;1.40;1.40;;;2.90;99.90;;;;;;5214865;28;20441;-55
2024/01/13 13:03:08;;;;;;;1.70;1.60;;;3.00;99.90;;;;;;5223272;28;20313;-52
2024/01/13 13:05:38;;;;;;;1.60;1.47;;;3.00;99.90;;;;;;5226684;28;20187;-53
2024/01/13 13:08:09;;;;;;;2.13;1.97;;;2.90;99.90;;;;;;5224815;28;20345;-53
2024/01/13 13:10:40;;;;;;;1.60;1.60;;;2.90;99.90;;;;;;5221448;28;20679;-53
2024/01/13 13:13:10;;;;;;;1.77;1.67;;;2.90;99.90;;;;;;5220347;28;20198;-59
2024/01/13 13:15:41;;;;;;;3.70;2.37;;;2.90;99.90;;;;;;5223800;28;20604;-52